createdAt,value
2022-12-19T00:02:27.288Z,48.53
2022-12-19T00:04:59.658Z,52.78
2022-12-19T00:07:32.326Z,34.27
2022-12-19T00:10:04.880Z,31.25
2022-12-19T00:12:37.139Z,24.23
2022-12-19T00:15:09.591Z,20.15
2022-12-19T00:17:42.301Z,20.20
2022-12-19T00:20:15.332Z,17.80
2022-12-19T00:22:50.992Z,14.80
2022-12-19T00:25:23.027Z,14.52
2022-12-19T00:27:56.333Z,12.95
2022-12-19T00:30:28.451Z,14.38
2022-12-19T00:33:03.282Z,12.17
2022-12-19T00:35:35.569Z,16.20
2022-12-19T00:38:07.578Z,44.38
2022-12-19T00:40:40.508Z,44.03
2022-12-19T00:43:12.771Z,45.15
2022-12-19T00:45:47.578Z,46.53
2022-12-19T00:48:19.892Z,46.38
2022-12-19T00:51:03.204Z,53.40
2022-12-19T00:53:36.744Z,45.75
2022-12-19T00:56:13.743Z,51.65
2022-12-19T00:58:47.288Z,48.30
2022-12-19T01:01:29.398Z,50.90
2022-12-19T01:04:27.623Z,45.65
2022-12-19T01:06:58.018Z,53.08
2022-12-19T01:09:37.417Z,50.80
2022-12-19T01:12:30.459Z,51.23
2022-12-19T01:15:04.394Z,53.95
2022-12-19T01:17:44.403Z,47.63
2022-12-19T01:20:26.688Z,50.72
2022-12-19T01:23:02.880Z,52.65
2022-12-19T01:25:37.113Z,50.37
2022-12-19T01:28:15.779Z,46.95
2022-12-19T01:30:48.364Z,51.53
2022-12-19T01:33:21.917Z,49.80
2022-12-19T01:35:54.459Z,52.50
2022-12-19T01:38:26.374Z,51.27
2022-12-19T01:40:59.052Z,53.33
2022-12-19T01:44:07.981Z,47.90
2022-12-19T01:46:48.720Z,48.22
2022-12-19T01:49:31.860Z,53.88
2022-12-19T01:52:08.471Z,49.50
2022-12-19T01:54:43.370Z,50.75
2022-12-19T01:57:18.717Z,47.53
2022-12-19T01:59:55.383Z,42.22
2022-12-19T02:02:44.361Z,28.92
2022-12-19T02:05:16.383Z,43.37
2022-12-19T02:07:50.696Z,45.25
2022-12-19T02:10:22.954Z,18.02
2022-12-19T02:12:55.886Z,8.25
2022-12-19T02:15:35.496Z,10.65
2022-12-19T02:18:21.036Z,7.10
2022-12-19T02:21:13.660Z,8.45
2022-12-19T02:24:18.859Z,8.98
2022-12-19T02:27:02.329Z,6.18
2022-12-19T02:30:35.704Z,6.65
2022-12-19T02:33:41.549Z,8.83
2022-12-19T02:36:27.194Z,8.30
2022-12-19T02:39:10.880Z,39.03
2022-12-19T02:41:51.485Z,15.13
2022-12-19T02:44:36.530Z,9.05
2022-12-19T02:47:11.598Z,8.77
2022-12-19T02:49:44.133Z,7.00
2022-12-19T02:52:20.761Z,9.38
2022-12-19T02:55:01.146Z,6.80
2022-12-19T02:58:08.605Z,7.07
2022-12-19T03:00:55.704Z,7.27
2022-12-19T03:03:47.337Z,7.15
2022-12-19T03:06:29.586Z,6.97
2022-12-19T03:09:20.409Z,6.95
2022-12-19T03:12:03.145Z,9.32
2022-12-19T03:14:37.293Z,7.30
2022-12-19T03:17:09.446Z,8.95
2022-12-19T03:19:42.666Z,7.72
2022-12-19T03:22:14.755Z,7.53
2022-12-19T03:24:47.846Z,6.25
2022-12-19T03:27:27.500Z,6.00
2022-12-19T03:30:11.985Z,6.07
2022-12-19T03:32:46.819Z,10.07
2022-12-19T03:35:23.485Z,6.65
2022-12-19T03:37:58.687Z,6.53
2022-12-19T03:40:33.701Z,6.50
2022-12-19T03:43:11.677Z,6.68
2022-12-19T03:46:10.505Z,6.97
2022-12-19T03:48:54.154Z,8.00
2022-12-19T03:51:40.190Z,7.82
2022-12-19T03:54:27.892Z,9.43
2022-12-19T03:57:26.141Z,7.35
2022-12-19T04:00:09.260Z,6.40
2022-12-19T04:02:52.349Z,7.57
2022-12-19T04:05:27.698Z,6.20
2022-12-19T04:08:05.480Z,6.23
2022-12-19T04:10:47.658Z,6.88
2022-12-19T04:13:28.142Z,6.63
2022-12-19T04:16:13.402Z,7.35
2022-12-19T04:18:53.248Z,7.47
2022-12-19T04:21:32.862Z,8.60
2022-12-19T04:24:19.026Z,6.22
2022-12-19T04:26:54.687Z,6.38
2022-12-19T04:29:28.675Z,6.28
2022-12-19T04:32:04.443Z,6.28
2022-12-19T04:34:40.201Z,6.57
2022-12-19T04:37:15.081Z,7.00
2022-12-19T04:39:48.317Z,7.30
2022-12-19T04:42:20.221Z,7.18
2022-12-19T04:44:52.930Z,8.57
2022-12-19T04:47:25.664Z,7.77
2022-12-19T04:49:57.585Z,11.55
2022-12-19T04:52:30.349Z,7.65
2022-12-19T04:55:02.713Z,6.32
2022-12-19T04:57:35.285Z,25.13
2022-12-19T05:00:10.415Z,12.83
2022-12-19T05:02:42.835Z,6.18
2022-12-19T05:05:14.900Z,6.80
2022-12-19T05:07:47.699Z,11.00
2022-12-19T05:10:19.816Z,27.08
2022-12-19T05:12:54.816Z,40.40
2022-12-19T05:15:26.678Z,17.40
2022-12-19T05:17:59.006Z,9.63
2022-12-19T05:20:30.907Z,6.80
2022-12-19T05:23:06.658Z,8.40
2022-12-19T05:25:42.138Z,10.43
2022-12-19T05:28:18.132Z,7.18
2022-12-19T05:30:52.523Z,7.53
2022-12-19T05:33:25.432Z,8.27
2022-12-19T05:35:58.086Z,7.97
2022-12-19T05:38:31.302Z,10.70
2022-12-19T05:41:20.420Z,7.70
2022-12-19T05:43:55.830Z,30.17
2022-12-19T05:46:27.857Z,11.32
2022-12-19T05:49:00.599Z,8.02
2022-12-19T05:51:32.594Z,9.03
2022-12-19T05:54:05.800Z,9.20
2022-12-19T05:56:37.707Z,9.45
2022-12-19T05:59:11.677Z,9.00
2022-12-19T06:01:43.718Z,11.20
2022-12-19T06:07:09.769Z,9.35
2022-12-19T06:09:42.023Z,9.35
2022-12-19T06:12:13.893Z,6.75
2022-12-19T06:14:46.646Z,8.80
2022-12-19T06:17:18.957Z,8.73
2022-12-19T06:19:51.657Z,8.45
2022-12-19T06:22:24.050Z,7.88
2022-12-19T06:24:56.766Z,8.85
2022-12-19T06:27:28.710Z,7.72
2022-12-19T06:30:23.553Z,8.97
2022-12-19T06:32:56.308Z,9.27
2022-12-19T06:35:28.870Z,8.55
2022-12-19T06:38:01.632Z,7.85
2022-12-19T06:40:52.871Z,7.80
2022-12-19T06:43:26.222Z,9.20
2022-12-19T06:45:59.000Z,9.35
2022-12-19T06:48:31.351Z,9.82
2022-12-19T06:53:57.399Z,11.13
2022-12-19T06:56:36.461Z,12.90
2022-12-19T06:59:13.278Z,8.55
2022-12-19T07:01:55.136Z,9.98
2022-12-19T07:04:38.714Z,13.70
2022-12-19T07:07:11.957Z,10.82
2022-12-19T07:09:44.504Z,27.47
2022-12-19T07:12:16.408Z,29.55
2022-12-19T07:14:53.602Z,36.35
2022-12-19T07:17:26.950Z,34.40
2022-12-19T07:19:59.944Z,34.72
2022-12-19T07:22:34.348Z,45.37
2022-12-19T07:25:08.035Z,43.90
2022-12-19T07:27:40.035Z,37.72
2022-12-19T07:30:13.376Z,41.60
2022-12-19T07:32:45.262Z,44.38
2022-12-19T07:35:18.238Z,40.70
2022-12-19T07:37:51.468Z,42.80
2022-12-19T07:40:23.584Z,48.38
2022-12-19T07:42:59.720Z,43.63
2022-12-19T07:45:33.141Z,38.33
2022-12-19T07:48:07.213Z,41.13
2022-12-19T07:50:39.117Z,37.88
2022-12-19T07:53:12.202Z,34.10
2022-12-19T07:55:45.151Z,39.38
2022-12-19T07:58:19.776Z,36.03
2022-12-19T08:00:57.757Z,38.07
2022-12-19T08:03:29.760Z,30.27
2022-12-19T08:06:06.366Z,30.83
2022-12-19T08:08:38.801Z,11.18
2022-12-19T08:11:26.769Z,9.90
2022-12-19T08:13:58.699Z,13.40
2022-12-19T08:16:37.384Z,11.40
2022-12-19T08:19:25.989Z,12.30
2022-12-19T08:22:00.393Z,9.82
2022-12-19T08:24:32.803Z,9.98
2022-12-19T08:27:06.564Z,9.13
2022-12-19T08:29:39.132Z,10.20
2022-12-19T08:32:17.127Z,10.15
2022-12-19T08:34:52.757Z,9.52
2022-12-19T08:37:25.752Z,11.55
2022-12-19T08:39:58.043Z,12.43
2022-12-19T08:42:31.288Z,12.50
2022-12-19T08:45:03.777Z,10.90
2022-12-19T08:47:36.259Z,9.82
2022-12-19T08:50:09.013Z,11.15
2022-12-19T08:52:41.185Z,9.00
2022-12-19T08:55:13.942Z,9.15
2022-12-19T08:57:46.262Z,10.90
2022-12-19T09:00:18.345Z,11.25
2022-12-19T09:02:52.088Z,11.88
2022-12-19T09:06:04.371Z,10.33
2022-12-19T09:08:16.847Z,9.88
2022-12-19T09:10:49.260Z,8.55
2022-12-19T09:13:22.540Z,10.45
2022-12-19T09:16:07.836Z,7.32
2022-12-19T09:18:46.609Z,7.80
2022-12-19T09:21:24.857Z,10.63
2022-12-19T09:24:07.045Z,7.00
2022-12-19T09:26:42.168Z,6.82
2022-12-19T09:29:20.328Z,6.88
2022-12-19T09:31:56.305Z,10.13
2022-12-19T09:34:38.376Z,8.98
2022-12-19T09:37:16.424Z,8.65
2022-12-19T09:39:49.564Z,9.90
2022-12-19T09:42:49.791Z,7.80
2022-12-19T09:46:16.340Z,10.83
2022-12-19T09:48:55.592Z,9.00
2022-12-19T09:52:11.590Z,13.23
2022-12-19T09:54:54.994Z,8.38
2022-12-19T09:57:56.618Z,8.55
2022-12-19T10:00:36.505Z,9.10
2022-12-19T10:03:26.291Z,6.03
2022-12-19T10:07:12.891Z,8.35
2022-12-19T10:09:45.342Z,8.57
2022-12-19T10:12:38.647Z,9.23
2022-12-19T10:14:49.444Z,8.35
2022-12-19T10:17:30.478Z,8.40
2022-12-19T10:20:34.208Z,10.98
2022-12-19T10:24:11.621Z,8.48
2022-12-19T10:26:52.250Z,10.10
2022-12-19T10:29:42.422Z,8.35
2022-12-19T10:32:36.794Z,9.98
2022-12-19T10:35:15.948Z,9.90
2022-12-19T10:37:59.937Z,9.98
2022-12-19T10:41:14.236Z,12.90
2022-12-19T10:44:07.166Z,11.32
2022-12-19T10:46:49.864Z,10.65
2022-12-19T10:49:26.671Z,9.20
2022-12-19T10:52:10.353Z,9.77
2022-12-19T10:54:44.320Z,7.95
2022-12-19T10:57:24.674Z,9.25
2022-12-19T11:00:17.008Z,8.90
2022-12-19T11:02:54.157Z,8.93
2022-12-19T11:05:50.652Z,9.80
2022-12-19T11:08:32.554Z,9.18
2022-12-19T11:11:57.985Z,9.32
2022-12-19T11:19:24.821Z,9.85
2022-12-19T11:22:47.627Z,8.65
2022-12-19T11:29:41.965Z,11.77
2022-12-19T11:29:44.433Z,8.82
2022-12-19T11:30:44.494Z,11.20
2022-12-19T11:30:47.264Z,8.23
2022-12-19T11:34:25.890Z,10.15
2022-12-19T11:37:21.363Z,9.68
2022-12-19T11:40:02.454Z,10.85
2022-12-19T11:43:41.552Z,11.02
2022-12-19T11:45:52.441Z,9.15
2022-12-19T11:48:45.933Z,8.73
2022-12-19T11:51:51.029Z,11.50
2022-12-19T11:54:37.966Z,10.05
2022-12-19T11:57:13.225Z,10.60
2022-12-19T11:59:47.322Z,10.05
2022-12-19T12:02:38.581Z,9.80
2022-12-19T12:05:36.780Z,10.07
2022-12-19T12:09:13.049Z,10.90
2022-12-19T12:18:35.938Z,9.45
2022-12-19T12:26:11.513Z,10.60
2022-12-19T12:31:09.105Z,8.25
2022-12-19T12:31:10.967Z,8.32
2022-12-19T12:31:39.471Z,9.55
2022-12-19T12:31:59.001Z,9.18
2022-12-19T12:35:41.440Z,9.75
2022-12-19T12:37:51.337Z,9.95
2022-12-19T12:39:18.061Z,10.13
2022-12-19T12:42:08.950Z,11.52
2022-12-19T12:44:46.109Z,17.13
2022-12-19T12:47:24.446Z,13.25
2022-12-19T12:50:17.837Z,11.88
2022-12-19T12:53:02.697Z,12.55
2022-12-19T12:55:43.335Z,10.32
2022-12-19T12:58:46.469Z,11.07
2022-12-19T13:01:30.372Z,12.10
2022-12-19T13:04:11.649Z,13.77
2022-12-19T13:06:50.560Z,11.90
2022-12-19T13:09:36.533Z,10.30
2022-12-19T13:12:47.007Z,10.02
2022-12-19T13:15:28.063Z,14.35
2022-12-19T13:18:14.531Z,10.32
2022-12-19T13:20:48.478Z,11.52
2022-12-19T13:23:37.735Z,11.03
2022-12-19T13:26:47.452Z,10.07
2022-12-19T13:30:04.058Z,11.80
2022-12-19T13:32:39.025Z,9.93
2022-12-19T13:36:26.331Z,13.52
2022-12-19T13:39:57.945Z,12.70
2022-12-19T13:42:01.312Z,15.63
2022-12-19T13:44:40.238Z,12.98
2022-12-19T13:47:17.665Z,13.00
2022-12-19T13:49:53.440Z,12.55
2022-12-19T13:52:25.540Z,13.10
2022-12-19T13:54:59.974Z,12.35
2022-12-19T13:57:32.961Z,54.60
2022-12-19T14:00:11.506Z,15.63
2022-12-19T14:02:57.489Z,12.73
2022-12-19T14:06:14.884Z,12.35
2022-12-19T14:08:27.392Z,10.23
2022-12-19T14:11:36.661Z,12.35
2022-12-19T14:14:27.628Z,13.88
2022-12-19T14:17:15.000Z,13.35
2022-12-19T14:19:52.085Z,12.53
2022-12-19T14:22:27.483Z,14.23
2022-12-19T14:25:45.209Z,18.45
2022-12-19T14:28:18.427Z,14.15
2022-12-19T14:34:27.116Z,11.93
2022-12-19T14:36:57.812Z,11.05
2022-12-19T14:39:35.605Z,9.90
2022-12-19T14:43:56.365Z,11.82
2022-12-19T14:53:10.811Z,11.13
2022-12-19T14:53:52.624Z,11.03
2022-12-19T14:54:29.063Z,9.82
2022-12-19T14:58:50.879Z,9.70
2022-12-19T15:01:07.625Z,12.48
2022-12-19T15:03:32.647Z,11.53
2022-12-19T15:07:05.078Z,8.70
2022-12-19T15:11:03.944Z,11.98
2022-12-19T15:13:47.263Z,8.93
2022-12-19T15:15:51.183Z,9.38
2022-12-19T15:18:34.406Z,9.77
2022-12-19T15:21:12.461Z,9.93
2022-12-19T15:23:46.126Z,9.48
2022-12-19T15:26:34.180Z,11.70
2022-12-19T15:29:14.139Z,9.88
2022-12-19T15:31:51.612Z,10.27
2022-12-19T15:34:46.363Z,10.38
2022-12-19T15:37:23.681Z,12.77
2022-12-19T15:39:55.588Z,11.27
2022-12-19T15:42:28.860Z,10.13
2022-12-19T15:45:02.817Z,10.33
2022-12-19T15:47:37.677Z,9.57
2022-12-19T15:50:24.856Z,9.55
2022-12-19T15:53:00.030Z,9.38
2022-12-19T15:55:32.426Z,10.68
2022-12-19T15:58:06.953Z,8.83
2022-12-19T16:00:39.977Z,8.63
2022-12-19T16:03:23.697Z,10.00
2022-12-19T16:05:57.248Z,9.90
2022-12-19T16:08:30.295Z,10.45
2022-12-19T16:11:02.568Z,9.33
2022-12-19T16:13:35.931Z,12.15
2022-12-19T16:16:15.537Z,10.55
2022-12-19T16:18:48.616Z,7.50
2022-12-19T16:21:33.617Z,8.52
2022-12-19T16:24:07.579Z,11.40
2022-12-19T16:26:40.478Z,9.27
2022-12-19T16:29:23.528Z,9.80
2022-12-19T16:31:57.262Z,9.73
2022-12-19T16:34:29.761Z,9.23
2022-12-19T16:37:02.979Z,10.60
2022-12-19T16:39:34.930Z,12.52
2022-12-19T16:42:18.559Z,10.73
2022-12-19T16:44:50.960Z,10.45
2022-12-19T16:47:23.838Z,10.82
2022-12-19T16:52:50.183Z,9.32
2022-12-19T16:55:24.584Z,10.50
2022-12-19T16:57:58.503Z,9.10
2022-12-19T17:00:32.180Z,10.02
2022-12-19T17:03:36.830Z,9.73
2022-12-19T17:06:18.471Z,9.80
2022-12-19T17:08:51.400Z,10.60
2022-12-19T17:14:23.962Z,9.52
2022-12-19T17:16:58.439Z,11.27
2022-12-19T17:19:38.475Z,9.65
2022-12-19T17:22:19.097Z,8.90
2022-12-19T17:24:52.230Z,10.50
2022-12-19T17:27:26.193Z,9.65
2022-12-19T17:29:58.593Z,8.80
2022-12-19T17:32:31.400Z,9.07
2022-12-19T17:35:03.902Z,7.15
2022-12-19T17:37:36.815Z,7.72
2022-12-19T17:40:31.191Z,8.68
2022-12-19T17:43:03.681Z,9.43
2022-12-19T17:45:36.173Z,9.55
2022-12-19T17:48:36.980Z,9.45
2022-12-19T17:51:12.207Z,9.20
2022-12-19T17:53:45.553Z,9.50
2022-12-19T17:56:20.901Z,9.27
2022-12-19T17:58:55.653Z,9.65
2022-12-19T18:01:29.819Z,8.70
2022-12-19T18:04:02.835Z,7.55
2022-12-19T18:06:36.507Z,7.57
2022-12-19T18:09:22.489Z,8.47
2022-12-19T18:11:55.822Z,7.03
2022-12-19T18:14:28.112Z,6.57
2022-12-19T18:17:01.827Z,7.38
2022-12-19T18:19:34.704Z,6.80
2022-12-19T18:22:14.809Z,8.40
2022-12-19T18:24:46.817Z,8.73
2022-12-19T18:27:19.646Z,7.55
2022-12-19T18:29:51.526Z,12.40
2022-12-19T18:32:25.030Z,10.77
2022-12-19T18:34:57.955Z,9.97
2022-12-19T18:37:29.895Z,14.38
2022-12-19T18:40:02.674Z,12.07
2022-12-19T18:42:35.620Z,11.35
2022-12-19T18:45:13.344Z,11.38
2022-12-19T18:47:53.867Z,9.40
2022-12-19T18:50:27.694Z,10.48
2022-12-19T18:53:01.516Z,9.32
2022-12-19T18:55:33.415Z,32.25
2022-12-19T18:58:06.191Z,10.27
2022-12-19T19:00:39.643Z,9.67
2022-12-19T19:03:19.732Z,9.35
2022-12-19T19:05:52.804Z,10.02
2022-12-19T19:08:34.681Z,8.32
2022-12-19T19:11:20.641Z,8.73
2022-12-19T19:13:53.189Z,10.87
2022-12-19T19:16:27.658Z,8.27
2022-12-19T19:19:00.949Z,9.07
2022-12-19T19:21:36.298Z,7.68
2022-12-19T19:24:21.499Z,9.90
2022-12-19T19:26:53.504Z,7.87
2022-12-19T19:29:26.174Z,10.27
2022-12-19T19:31:58.480Z,8.93
2022-12-19T19:34:35.359Z,9.60
2022-12-19T19:37:10.196Z,8.38
2022-12-19T19:39:42.680Z,9.17
2022-12-19T19:42:19.045Z,9.52
2022-12-19T19:44:50.907Z,12.20
2022-12-19T19:47:28.759Z,13.88
2022-12-19T19:50:00.698Z,9.57
2022-12-19T19:52:33.993Z,10.73
2022-12-19T19:55:08.389Z,10.88
2022-12-19T19:57:41.286Z,12.75
2022-12-19T20:00:13.905Z,8.00
2022-12-19T20:02:46.577Z,6.40
2022-12-19T20:05:18.722Z,8.10
2022-12-19T20:07:53.782Z,6.75
2022-12-19T20:10:25.650Z,8.70
2022-12-19T20:13:01.559Z,8.77
2022-12-19T20:15:34.211Z,9.02
2022-12-19T20:18:06.999Z,11.47
2022-12-19T20:20:39.032Z,9.85
2022-12-19T20:23:11.748Z,8.57
2022-12-19T20:25:44.558Z,9.82
2022-12-19T20:28:17.778Z,10.32
2022-12-19T20:30:51.248Z,12.40
2022-12-19T20:33:23.508Z,9.77
2022-12-19T20:35:57.850Z,8.95
2022-12-19T20:38:30.165Z,10.07
2022-12-19T20:41:03.450Z,9.73
2022-12-19T20:43:38.639Z,9.07
2022-12-19T20:46:20.755Z,9.80
2022-12-19T20:48:53.073Z,12.85
2022-12-19T20:51:25.812Z,11.27
2022-12-19T20:53:57.781Z,11.02
2022-12-19T20:56:30.121Z,9.37
2022-12-19T20:59:02.314Z,12.10
2022-12-19T21:01:35.112Z,10.82
2022-12-19T21:04:08.030Z,10.50
2022-12-19T21:06:41.705Z,11.88
2022-12-19T21:09:14.675Z,11.87
2022-12-19T21:11:47.006Z,11.82
2022-12-19T21:14:19.708Z,9.38
2022-12-19T21:16:52.026Z,11.88
2022-12-19T21:19:24.368Z,10.25
2022-12-19T21:21:56.273Z,9.37
2022-12-19T21:24:29.680Z,8.05
2022-12-19T21:27:01.571Z,11.23
2022-12-19T21:29:34.328Z,9.13
2022-12-19T21:32:06.637Z,12.40
2022-12-19T21:34:38.541Z,9.33
2022-12-19T21:37:11.843Z,8.15
2022-12-19T21:39:43.749Z,8.75
2022-12-19T21:42:16.465Z,7.70
2022-12-19T21:44:48.412Z,7.78
2022-12-19T21:47:21.680Z,7.57
2022-12-19T21:49:54.188Z,7.28
2022-12-19T21:55:20.021Z,8.52
2022-12-19T21:57:52.814Z,6.80
2022-12-19T22:00:28.466Z,7.50
2022-12-19T22:03:14.130Z,6.63
2022-12-19T22:05:46.987Z,7.18
2022-12-19T22:08:19.740Z,8.25
2022-12-19T22:10:51.638Z,5.90
2022-12-19T22:13:25.531Z,7.20
2022-12-19T22:16:02.247Z,9.18
2022-12-19T22:18:37.637Z,9.30
2022-12-19T22:21:14.849Z,6.50
2022-12-19T22:23:46.947Z,8.88
2022-12-19T22:26:23.067Z,8.13
2022-12-19T22:28:57.341Z,8.45
2022-12-19T22:31:32.873Z,8.10
2022-12-19T22:34:11.764Z,9.15
2022-12-19T22:36:45.863Z,8.93
2022-12-19T22:39:20.534Z,8.27
2022-12-19T22:41:53.335Z,7.25
2022-12-19T22:44:25.650Z,8.00
2022-12-19T22:46:57.976Z,8.38
2022-12-19T22:49:29.894Z,8.15
2022-12-19T22:52:02.652Z,8.63
2022-12-19T22:54:34.544Z,9.07
2022-12-19T22:57:07.630Z,8.80
2022-12-19T22:59:40.402Z,8.85
2022-12-19T23:02:13.405Z,8.32
2022-12-19T23:04:45.907Z,8.40
2022-12-19T23:07:17.807Z,8.05
2022-12-19T23:09:50.757Z,7.78
2022-12-19T23:12:22.684Z,7.45
2022-12-19T23:14:55.400Z,7.63
2022-12-19T23:17:27.323Z,9.45
2022-12-19T23:19:59.705Z,8.75
2022-12-19T23:22:32.437Z,8.52
2022-12-19T23:25:05.880Z,8.07
2022-12-19T23:27:38.209Z,10.10
2022-12-19T23:30:11.325Z,9.23
2022-12-19T23:32:50.288Z,8.77
2022-12-19T23:35:23.589Z,10.23
2022-12-19T23:37:56.024Z,10.38
2022-12-19T23:40:28.011Z,6.68
2022-12-19T23:43:00.434Z,9.50
2022-12-19T23:45:32.524Z,7.25
2022-12-19T23:48:05.940Z,9.90
2022-12-19T23:50:37.818Z,7.00
2022-12-19T23:53:10.640Z,6.88
2022-12-19T23:55:42.512Z,6.57
2022-12-19T23:58:22.309Z,5.72
